AFZ48E EINN-EINN
Flight info
| Callsign | AFZ48E |
|---|---|
| Flight time | 0h 51m |
| Altitude | 2500 |
| Route | EINN DCT ENNIS DCT LAHINCH DCT DOOLIN DCT CLIFFS OF MOHER DCT DOOLIN DCT LAHINCH DCT DOOBEG DCT KILRUSH DCT FOYNES DCT EINN |
| Aircraft | DA42/L-SBDGRY/S |
Departure
| Time | 2026-04-29 18:56 |
|---|---|
| Airport | Shannon Airport (EINN) |
Arrival
| Time | 2026-04-29 19:47 |
|---|---|
| Airport | Shannon Airport (EINN) |
| Time | Latitude | Longitude | Altitude | Speed | Heading |
|---|---|---|---|---|---|
| 2026-04-29 18:40 | 52.69246 | -8.91365 | 17 ft | 0 kts | 43° |
| 2026-04-29 18:48 | 52.69247 | -8.91364 | 17 ft | 1 kts | 21° |
| 2026-04-29 18:48 | 52.69252 | -8.91386 | 17 ft | 7 kts | 261° |
| 2026-04-29 18:48 | 52.69265 | -8.91488 | 17 ft | 11 kts | 297° |
| 2026-04-29 18:48 | 52.69264 | -8.91604 | 17 ft | 12 kts | 309° |
| 2026-04-29 18:49 | 52.69319 | -8.91710 | 17 ft | 11 kts | 314° |
| 2026-04-29 18:49 | 52.69357 | -8.91741 | 17 ft | 5 kts | 349° |
| 2026-04-29 18:49 | 52.69396 | -8.91758 | 17 ft | 6 kts | 341° |
| 2026-04-29 18:49 | 52.69431 | -8.91812 | 17 ft | 8 kts | 301° |
| 2026-04-29 18:50 | 52.69453 | -8.91914 | 17 ft | 11 kts | 285° |
| 2026-04-29 18:50 | 52.69471 | -8.92047 | 17 ft | 13 kts | 283° |
| 2026-04-29 18:50 | 52.69500 | -8.92200 | 17 ft | 15 kts | 291° |
| 2026-04-29 18:50 | 52.69552 | -8.92360 | 17 ft | 17 kts | 309° |
| 2026-04-29 18:51 | 52.69617 | -8.92470 | 17 ft | 11 kts | 318° |
| 2026-04-29 18:51 | 52.69675 | -8.92562 | 17 ft | 12 kts | 317° |
| 2026-04-29 18:51 | 52.69739 | -8.92668 | 17 ft | 14 kts | 315° |
| 2026-04-29 18:51 | 52.69808 | -8.92779 | 18 ft | 14 kts | 316° |
| 2026-04-29 18:52 | 52.69870 | -8.92881 | 21 ft | 7 kts | 317° |
| 2026-04-29 18:52 | 52.69880 | -8.92897 | 22 ft | 0 kts | 315° |
| 2026-04-29 18:54 | 52.69887 | -8.92908 | 24 ft | 6 kts | 315° |
| 2026-04-29 18:54 | 52.69928 | -8.92970 | 32 ft | 9 kts | 327° |
| 2026-04-29 18:55 | 52.69998 | -8.92919 | 31 ft | 25 kts | 52° |
| 2026-04-29 18:55 | 52.70229 | -8.92430 | 35 ft | 77 kts | 52° |
| 2026-04-29 18:55 | 52.70589 | -8.91684 | 256 ft | 83 kts | 54° |
| 2026-04-29 18:55 | 52.70902 | -8.90934 | 602 ft | 79 kts | 56° |
| 2026-04-29 18:56 | 52.71275 | -8.90290 | 994 ft | 80 kts | 28° |
| 2026-04-29 18:56 | 52.71874 | -8.90365 | 1306 ft | 97 kts | 343° |
| 2026-04-29 18:56 | 52.72500 | -8.90901 | 1490 ft | 113 kts | 342° |
| 2026-04-29 18:56 | 52.73274 | -8.91527 | 1496 ft | 130 kts | 342° |
| 2026-04-29 18:57 | 52.74113 | -8.92193 | 1490 ft | 137 kts | 343° |
| 2026-04-29 18:57 | 52.74992 | -8.92893 | 1489 ft | 143 kts | 342° |
| 2026-04-29 18:57 | 52.75910 | -8.93601 | 1489 ft | 147 kts | 342° |
| 2026-04-29 18:57 | 52.76856 | -8.94308 | 1488 ft | 151 kts | 343° |
| 2026-04-29 18:58 | 52.77811 | -8.95043 | 1488 ft | 151 kts | 342° |
| 2026-04-29 18:58 | 52.78756 | -8.95778 | 1482 ft | 149 kts | 342° |
| 2026-04-29 18:58 | 52.79694 | -8.96476 | 1481 ft | 146 kts | 346° |
| 2026-04-29 18:58 | 52.80633 | -8.97087 | 1484 ft | 145 kts | 347° |
| 2026-04-29 18:59 | 52.81552 | -8.97700 | 1486 ft | 144 kts | 346° |
| 2026-04-29 18:59 | 52.82478 | -8.98317 | 1484 ft | 144 kts | 346° |
| 2026-04-29 18:59 | 52.83426 | -8.98920 | 1493 ft | 148 kts | 347° |
| 2026-04-29 18:59 | 52.84398 | -8.99534 | 1495 ft | 151 kts | 346° |
| 2026-04-29 19:00 | 52.85249 | -9.00584 | 1485 ft | 161 kts | 307° |
| 2026-04-29 19:00 | 52.85700 | -9.02292 | 1483 ft | 163 kts | 293° |
| 2026-04-29 19:00 | 52.86104 | -9.04060 | 1493 ft | 166 kts | 292° |
| 2026-04-29 19:00 | 52.86513 | -9.05836 | 1488 ft | 165 kts | 292° |
| 2026-04-29 19:01 | 52.86908 | -9.07607 | 1483 ft | 163 kts | 293° |
| 2026-04-29 19:01 | 52.87274 | -9.09370 | 1488 ft | 161 kts | 291° |
| 2026-04-29 19:01 | 52.87644 | -9.11114 | 1484 ft | 160 kts | 292° |
| 2026-04-29 19:01 | 52.88023 | -9.12824 | 1499 ft | 156 kts | 293° |
| 2026-04-29 19:02 | 52.88394 | -9.14524 | 1486 ft | 157 kts | 292° |
| 2026-04-29 19:02 | 52.88624 | -9.15661 | 1486 ft | 157 kts | 292° |
| 2026-04-29 19:02 | 52.89116 | -9.17960 | 1494 ft | 160 kts | 293° |
| 2026-04-29 19:02 | 52.89499 | -9.19706 | 1492 ft | 162 kts | 292° |
| 2026-04-29 19:03 | 52.89884 | -9.21470 | 1490 ft | 163 kts | 292° |
| 2026-04-29 19:03 | 52.90265 | -9.23240 | 1490 ft | 163 kts | 292° |
| 2026-04-29 19:03 | 52.90649 | -9.25014 | 1493 ft | 164 kts | 292° |
| 2026-04-29 19:03 | 52.91040 | -9.26771 | 1491 ft | 165 kts | 292° |
| 2026-04-29 19:04 | 52.91429 | -9.28558 | 1486 ft | 165 kts | 292° |
| 2026-04-29 19:04 | 52.91797 | -9.30357 | 1494 ft | 165 kts | 291° |
| 2026-04-29 19:04 | 52.92142 | -9.32159 | 1491 ft | 163 kts | 292° |
| 2026-04-29 19:04 | 52.92494 | -9.33931 | 1482 ft | 161 kts | 293° |
| 2026-04-29 19:05 | 52.92936 | -9.35590 | 1495 ft | 153 kts | 318° |
| 2026-04-29 19:05 | 52.93797 | -9.36458 | 1492 ft | 143 kts | 348° |
| 2026-04-29 19:05 | 52.94737 | -9.37031 | 1447 ft | 146 kts | 349° |
| 2026-04-29 19:05 | 52.95686 | -9.37592 | 1319 ft | 143 kts | 349° |
| 2026-04-29 19:06 | 52.96615 | -9.38144 | 1188 ft | 141 kts | 349° |
| 2026-04-29 19:06 | 52.97537 | -9.38670 | 1059 ft | 139 kts | 349° |
| 2026-04-29 19:06 | 52.99300 | -9.39559 | 996 ft | 119 kts | 8° |
| 2026-04-29 19:07 | 53.00097 | -9.39564 | 998 ft | 110 kts | 11° |
| 2026-04-29 19:07 | 53.00595 | -9.39567 | 993 ft | 105 kts | 11° |
| 2026-04-29 19:07 | 53.01536 | -9.39571 | 996 ft | 98 kts | 11° |
| 2026-04-29 19:07 | 53.02202 | -9.39607 | 999 ft | 97 kts | 11° |
| 2026-04-29 19:08 | 53.02863 | -9.39617 | 996 ft | 91 kts | 19° |
| 2026-04-29 19:08 | 53.03487 | -9.39445 | 1001 ft | 92 kts | 21° |
| 2026-04-29 19:08 | 53.04133 | -9.39262 | 1005 ft | 99 kts | 13° |
| 2026-04-29 19:08 | 53.04828 | -9.39729 | 1013 ft | 121 kts | 326° |
| 2026-04-29 19:09 | 53.05235 | -9.41024 | 1010 ft | 135 kts | 281° |
| 2026-04-29 19:09 | 53.05075 | -9.42595 | 889 ft | 143 kts | 238° |
| 2026-04-29 19:09 | 53.04357 | -9.43652 | 758 ft | 137 kts | 193° |
| 2026-04-29 19:09 | 53.03448 | -9.43900 | 645 ft | 133 kts | 175° |
| 2026-04-29 19:10 | 53.02533 | -9.43756 | 522 ft | 133 kts | 159° |
| 2026-04-29 19:10 | 53.01660 | -9.43447 | 507 ft | 123 kts | 159° |
| 2026-04-29 19:10 | 53.00853 | -9.43156 | 505 ft | 116 kts | 159° |
| 2026-04-29 19:10 | 53.00089 | -9.42882 | 496 ft | 110 kts | 165° |
| 2026-04-29 19:11 | 52.99334 | -9.43083 | 504 ft | 109 kts | 188° |
| 2026-04-29 19:11 | 52.98601 | -9.43390 | 495 ft | 107 kts | 177° |
| 2026-04-29 19:11 | 52.97874 | -9.43472 | 498 ft | 105 kts | 181° |
| 2026-04-29 19:11 | 52.97161 | -9.43791 | 500 ft | 109 kts | 197° |
| 2026-04-29 19:12 | 52.96505 | -9.44432 | 492 ft | 111 kts | 218° |
| 2026-04-29 19:12 | 52.95999 | -9.45402 | 486 ft | 111 kts | 230° |
| 2026-04-29 19:12 | 52.95526 | -9.46439 | 494 ft | 115 kts | 228° |
| 2026-04-29 19:12 | 52.95153 | -9.47065 | 491 ft | 115 kts | 211° |
| 2026-04-29 19:13 | 52.94261 | -9.47905 | 543 ft | 107 kts | 199° |
| 2026-04-29 19:13 | 52.93559 | -9.48233 | 646 ft | 106 kts | 183° |
| 2026-04-29 19:13 | 52.92824 | -9.48537 | 748 ft | 112 kts | 187° |
| 2026-04-29 19:13 | 52.92184 | -9.49385 | 848 ft | 127 kts | 236° |
| 2026-04-29 19:14 | 52.92012 | -9.50834 | 956 ft | 133 kts | 281° |
| 2026-04-29 19:14 | 52.92407 | -9.52164 | 991 ft | 126 kts | 326° |
| 2026-04-29 19:14 | 52.93143 | -9.52696 | 996 ft | 110 kts | 11° |
| 2026-04-29 19:14 | 52.93800 | -9.52309 | 1004 ft | 96 kts | 52° |
| 2026-04-29 19:15 | 52.94130 | -9.51390 | 1004 ft | 92 kts | 76° |
| 2026-04-29 19:15 | 52.94279 | -9.50379 | 1007 ft | 91 kts | 79° |
| 2026-04-29 19:15 | 52.94432 | -9.49371 | 1003 ft | 91 kts | 68° |
| 2026-04-29 19:15 | 52.94824 | -9.48539 | 1004 ft | 92 kts | 57° |
| 2026-04-29 19:16 | 52.95222 | -9.47826 | 1263 ft | 63 kts | 54° |
| 2026-04-29 19:16 | 52.95642 | -9.47128 | 907 ft | 102 kts | 55° |
| 2026-04-29 19:16 | 52.96105 | -9.46319 | 937 ft | 104 kts | 34° |
| 2026-04-29 19:16 | 52.96645 | -9.45622 | 988 ft | 93 kts | 54° |
| 2026-04-29 19:17 | 52.97089 | -9.44845 | 990 ft | 96 kts | 37° |
| 2026-04-29 19:17 | 52.97706 | -9.44384 | 1002 ft | 98 kts | 32° |
| 2026-04-29 19:17 | 52.98328 | -9.43929 | 1002 ft | 98 kts | 32° |
| 2026-04-29 19:17 | 52.98939 | -9.43440 | 997 ft | 95 kts | 46° |
| 2026-04-29 19:18 | 52.99440 | -9.42721 | 1002 ft | 96 kts | 49° |
| 2026-04-29 19:18 | 52.99774 | -9.42229 | 1004 ft | 97 kts | 49° |
| 2026-04-29 19:18 | 53.00453 | -9.41220 | 1005 ft | 98 kts | 49° |
| 2026-04-29 19:18 | 53.00963 | -9.40466 | 1003 ft | 98 kts | 49° |
| 2026-04-29 19:19 | 53.01481 | -9.39755 | 995 ft | 99 kts | 35° |
| 2026-04-29 19:19 | 53.02197 | -9.39757 | 1003 ft | 114 kts | 348° |
| 2026-04-29 19:19 | 53.02793 | -9.40707 | 1001 ft | 127 kts | 302° |
| 2026-04-29 19:19 | 53.02912 | -9.42163 | 997 ft | 130 kts | 257° |
| 2026-04-29 19:20 | 53.02488 | -9.43439 | 1003 ft | 125 kts | 221° |
| 2026-04-29 19:20 | 53.01780 | -9.44119 | 1004 ft | 113 kts | 176° |
| 2026-04-29 19:20 | 53.01044 | -9.43970 | 1009 ft | 106 kts | 156° |
| 2026-04-29 19:20 | 53.00331 | -9.43680 | 1011 ft | 108 kts | 155° |
| 2026-04-29 19:21 | 52.99614 | -9.43381 | 1008 ft | 105 kts | 155° |
| 2026-04-29 19:21 | 52.98882 | -9.43296 | 1007 ft | 110 kts | 178° |
| 2026-04-29 19:21 | 52.98131 | -9.43516 | 1001 ft | 110 kts | 179° |
| 2026-04-29 19:21 | 52.97385 | -9.43745 | 992 ft | 108 kts | 179° |
| 2026-04-29 19:22 | 52.96646 | -9.43974 | 993 ft | 108 kts | 179° |
| 2026-04-29 19:22 | 52.95932 | -9.44389 | 958 ft | 112 kts | 212° |
| 2026-04-29 19:22 | 52.95397 | -9.45324 | 991 ft | 119 kts | 240° |
| 2026-04-29 19:22 | 52.95088 | -9.46537 | 1200 ft | 117 kts | 232° |
| 2026-04-29 19:23 | 52.94532 | -9.47693 | 1082 ft | 140 kts | 223° |
| 2026-04-29 19:23 | 52.93844 | -9.48953 | 1002 ft | 150 kts | 211° |
| 2026-04-29 19:23 | 52.92956 | -9.49500 | 1010 ft | 129 kts | 176° |
| 2026-04-29 19:23 | 52.92127 | -9.49344 | 1070 ft | 114 kts | 149° |
| 2026-04-29 19:24 | 52.91402 | -9.48885 | 1170 ft | 110 kts | 148° |
| 2026-04-29 19:24 | 52.90703 | -9.48444 | 1292 ft | 105 kts | 148° |
| 2026-04-29 19:24 | 52.90029 | -9.48025 | 1422 ft | 102 kts | 148° |
| 2026-04-29 19:24 | 52.89368 | -9.47614 | 1493 ft | 103 kts | 149° |
| 2026-04-29 19:25 | 52.88688 | -9.47163 | 1499 ft | 107 kts | 148° |
| 2026-04-29 19:25 | 52.87990 | -9.46693 | 1497 ft | 109 kts | 148° |
| 2026-04-29 19:25 | 52.87279 | -9.46225 | 1505 ft | 111 kts | 148° |
| 2026-04-29 19:25 | 52.86555 | -9.45756 | 1505 ft | 113 kts | 148° |
| 2026-04-29 19:26 | 52.85824 | -9.45277 | 1503 ft | 114 kts | 148° |
| 2026-04-29 19:26 | 52.85090 | -9.44777 | 1494 ft | 114 kts | 148° |
| 2026-04-29 19:26 | 52.84356 | -9.44275 | 1500 ft | 115 kts | 152° |
| 2026-04-29 19:26 | 52.83514 | -9.44418 | 1504 ft | 134 kts | 196° |
| 2026-04-29 19:27 | 52.82685 | -9.45210 | 1499 ft | 140 kts | 204° |
| 2026-04-29 19:27 | 52.81871 | -9.46071 | 1501 ft | 141 kts | 204° |
| 2026-04-29 19:27 | 52.81040 | -9.46942 | 1491 ft | 141 kts | 204° |
| 2026-04-29 19:27 | 52.80223 | -9.47818 | 1498 ft | 140 kts | 204° |
| 2026-04-29 19:28 | 52.79412 | -9.48697 | 1497 ft | 139 kts | 204° |
| 2026-04-29 19:28 | 52.78612 | -9.49582 | 1500 ft | 139 kts | 205° |
| 2026-04-29 19:28 | 52.77798 | -9.50456 | 1499 ft | 140 kts | 204° |
| 2026-04-29 19:28 | 52.76979 | -9.51338 | 1494 ft | 141 kts | 204° |
| 2026-04-29 19:29 | 52.76145 | -9.52158 | 1486 ft | 134 kts | 188° |
| 2026-04-29 19:29 | 52.75261 | -9.52585 | 1491 ft | 132 kts | 184° |
| 2026-04-29 19:29 | 52.74370 | -9.52908 | 1489 ft | 130 kts | 179° |
| 2026-04-29 19:29 | 52.73478 | -9.53140 | 1488 ft | 130 kts | 178° |
| 2026-04-29 19:30 | 52.72579 | -9.53380 | 1502 ft | 131 kts | 179° |
| 2026-04-29 19:30 | 52.71667 | -9.53600 | 1498 ft | 134 kts | 177° |
| 2026-04-29 19:30 | 52.70751 | -9.53722 | 1503 ft | 128 kts | 162° |
| 2026-04-29 19:30 | 52.69865 | -9.53521 | 1498 ft | 129 kts | 161° |
| 2026-04-29 19:31 | 52.68978 | -9.53305 | 1491 ft | 128 kts | 161° |
| 2026-04-29 19:31 | 52.68098 | -9.53104 | 1491 ft | 127 kts | 162° |
| 2026-04-29 19:31 | 52.67222 | -9.52888 | 1484 ft | 128 kts | 161° |
| 2026-04-29 19:31 | 52.66345 | -9.52655 | 1483 ft | 128 kts | 161° |
| 2026-04-29 19:32 | 52.65493 | -9.52332 | 1477 ft | 121 kts | 144° |
| 2026-04-29 19:32 | 52.64826 | -9.51588 | 1484 ft | 116 kts | 133° |
| 2026-04-29 19:32 | 52.64208 | -9.50758 | 1478 ft | 111 kts | 133° |
| 2026-04-29 19:32 | 52.63624 | -9.49981 | 1478 ft | 105 kts | 132° |
| 2026-04-29 19:33 | 52.63085 | -9.49198 | 1481 ft | 99 kts | 128° |
| 2026-04-29 19:33 | 52.62753 | -9.48676 | 1493 ft | 100 kts | 127° |
| 2026-04-29 19:33 | 52.62335 | -9.47784 | 1493 ft | 98 kts | 114° |
| 2026-04-29 19:33 | 52.61992 | -9.46415 | 1486 ft | 99 kts | 105° |
| 2026-04-29 19:34 | 52.61761 | -9.45346 | 1482 ft | 99 kts | 105° |
| 2026-04-29 19:34 | 52.61616 | -9.44260 | 1486 ft | 95 kts | 92° |
| 2026-04-29 19:34 | 52.61598 | -9.43537 | 1487 ft | 93 kts | 91° |
| 2026-04-29 19:34 | 52.61573 | -9.42487 | 1486 ft | 90 kts | 91° |
| 2026-04-29 19:35 | 52.61547 | -9.41475 | 1484 ft | 88 kts | 91° |
| 2026-04-29 19:35 | 52.61523 | -9.40465 | 1480 ft | 88 kts | 92° |
| 2026-04-29 19:35 | 52.61517 | -9.39442 | 1487 ft | 91 kts | 91° |
| 2026-04-29 19:35 | 52.61517 | -9.38405 | 1484 ft | 91 kts | 91° |
| 2026-04-29 19:36 | 52.61519 | -9.37370 | 1489 ft | 91 kts | 91° |
| 2026-04-29 19:36 | 52.61518 | -9.36307 | 1494 ft | 95 kts | 91° |
| 2026-04-29 19:36 | 52.61492 | -9.35226 | 1492 ft | 97 kts | 97° |
| 2026-04-29 19:36 | 52.61401 | -9.34121 | 1496 ft | 98 kts | 97° |
| 2026-04-29 19:37 | 52.61297 | -9.33009 | 1507 ft | 99 kts | 97° |
| 2026-04-29 19:37 | 52.61221 | -9.32255 | 1507 ft | 99 kts | 97° |
| 2026-04-29 19:37 | 52.61067 | -9.30774 | 1504 ft | 98 kts | 97° |
| 2026-04-29 19:37 | 52.60944 | -9.29691 | 1494 ft | 94 kts | 100° |
| 2026-04-29 19:38 | 52.60794 | -9.28650 | 1501 ft | 94 kts | 100° |
| 2026-04-29 19:38 | 52.60663 | -9.27572 | 1502 ft | 97 kts | 94° |
| 2026-04-29 19:38 | 52.60632 | -9.26452 | 1509 ft | 100 kts | 90° |
| 2026-04-29 19:38 | 52.60625 | -9.25282 | 1509 ft | 103 kts | 91° |
| 2026-04-29 19:39 | 52.60629 | -9.24099 | 1510 ft | 104 kts | 90° |
| 2026-04-29 19:39 | 52.60636 | -9.22909 | 1510 ft | 104 kts | 90° |
| 2026-04-29 19:39 | 52.60637 | -9.21710 | 1512 ft | 105 kts | 90° |
| 2026-04-29 19:39 | 52.60638 | -9.20500 | 1513 ft | 106 kts | 90° |
| 2026-04-29 19:40 | 52.60668 | -9.19284 | 1514 ft | 107 kts | 85° |
| 2026-04-29 19:40 | 52.60768 | -9.18076 | 1516 ft | 106 kts | 84° |
| 2026-04-29 19:40 | 52.60867 | -9.16868 | 1518 ft | 107 kts | 84° |
| 2026-04-29 19:40 | 52.60959 | -9.15655 | 1517 ft | 107 kts | 84° |
| 2026-04-29 19:41 | 52.61051 | -9.14445 | 1516 ft | 106 kts | 84° |
| 2026-04-29 19:41 | 52.61140 | -9.13243 | 1521 ft | 106 kts | 84° |
| 2026-04-29 19:41 | 52.61300 | -9.12041 | 1521 ft | 110 kts | 77° |
| 2026-04-29 19:41 | 52.61644 | -9.10895 | 1514 ft | 116 kts | 63° |
| 2026-04-29 19:42 | 52.62093 | -9.09793 | 1520 ft | 116 kts | 61° |
| 2026-04-29 19:42 | 52.62410 | -9.09066 | 1513 ft | 113 kts | 60° |
| 2026-04-29 19:42 | 52.62997 | -9.07769 | 1510 ft | 102 kts | 60° |
| 2026-04-29 19:42 | 52.63421 | -9.06852 | 1510 ft | 100 kts | 59° |
| 2026-04-29 19:43 | 52.63847 | -9.05949 | 1510 ft | 100 kts | 59° |
| 2026-04-29 19:43 | 52.64269 | -9.05055 | 1510 ft | 98 kts | 59° |
| 2026-04-29 19:43 | 52.64688 | -9.04167 | 1510 ft | 98 kts | 58° |
| 2026-04-29 19:43 | 52.65107 | -9.03280 | 1465 ft | 97 kts | 58° |
| 2026-04-29 19:44 | 52.65514 | -9.02420 | 1343 ft | 94 kts | 59° |
| 2026-04-29 19:44 | 52.65909 | -9.01587 | 1217 ft | 91 kts | 58° |
| 2026-04-29 19:44 | 52.66292 | -9.00778 | 1097 ft | 89 kts | 59° |
| 2026-04-29 19:44 | 52.66673 | -8.99971 | 962 ft | 90 kts | 56° |
| 2026-04-29 19:45 | 52.67063 | -8.99143 | 843 ft | 94 kts | 56° |
| 2026-04-29 19:45 | 52.67476 | -8.98262 | 716 ft | 99 kts | 53° |
| 2026-04-29 19:45 | 52.67883 | -8.97396 | 582 ft | 92 kts | 55° |
| 2026-04-29 19:45 | 52.68254 | -8.96602 | 445 ft | 84 kts | 50° |
| 2026-04-29 19:46 | 52.68600 | -8.95869 | 281 ft | 80 kts | 48° |
| 2026-04-29 19:46 | 52.68954 | -8.95118 | 190 ft | 83 kts | 53° |
| 2026-04-29 19:46 | 52.69290 | -8.94409 | 105 ft | 72 kts | 51° |
| 2026-04-29 19:46 | 52.69600 | -8.93757 | 36 ft | 64 kts | 52° |
| 2026-04-29 19:47 | 52.69815 | -8.93302 | 35 ft | 41 kts | 52° |
| 2026-04-29 19:47 | 52.69934 | -8.93032 | 34 ft | 18 kts | 83° |
| 2026-04-29 19:47 | 52.69860 | -8.92862 | 20 ft | 21 kts | 137° |
| 2026-04-29 19:47 | 52.69762 | -8.92703 | 17 ft | 19 kts | 134° |
| 2026-04-29 19:48 | 52.69675 | -8.92565 | 17 ft | 16 kts | 136° |
| 2026-04-29 19:48 | 52.69613 | -8.92462 | 17 ft | 19 kts | 136° |
| 2026-04-29 19:48 | 52.69510 | -8.92243 | 17 ft | 17 kts | 112° |
| 2026-04-29 19:48 | 52.69472 | -8.92045 | 17 ft | 17 kts | 107° |
| 2026-04-29 19:49 | 52.69447 | -8.91881 | 17 ft | 13 kts | 106° |
| 2026-04-29 19:49 | 52.69389 | -8.91758 | 17 ft | 16 kts | 162° |
| 2026-04-29 19:49 | 52.69298 | -8.91666 | 17 ft | 15 kts | 124° |
| 2026-04-29 19:49 | 52.69262 | -8.91535 | 17 ft | 12 kts | 61° |
| 2026-04-29 19:50 | 52.69250 | -8.91423 | 17 ft | 9 kts | 116° |
| 2026-04-29 19:50 | 52.69245 | -8.91376 | 17 ft | 3 kts | 31° |
| 2026-04-29 19:50 | 52.69253 | -8.91369 | 17 ft | 0 kts | 33° |